sensor_id;sensor_type;location;lat;lon;timestamp;noise_LAeq;noise_LA_min;noise_LA_max;noise_LA01;noise_LA95
72686;Laerm;61365;52.162;4.500;2023-09-07T00:00:53;51.31;30.95;66.71;;
72686;Laerm;61365;52.162;4.500;2023-09-07T00:03:19;51.39;31.04;66.48;;
72686;Laerm;61365;52.162;4.500;2023-09-07T00:05:45;51.75;30.74;67.01;;
72686;Laerm;61365;52.162;4.500;2023-09-07T00:08:11;51.80;30.77;64.23;;
72686;Laerm;61365;52.162;4.500;2023-09-07T00:10:37;51.58;30.92;66.81;;
72686;Laerm;61365;52.162;4.500;2023-09-07T00:13:04;52.03;30.97;66.47;;
72686;Laerm;61365;52.162;4.500;2023-09-07T00:15:36;51.90;30.84;67.42;;
72686;Laerm;61365;52.162;4.500;2023-09-07T00:18:02;51.82;30.70;66.75;;
72686;Laerm;61365;52.162;4.500;2023-09-07T00:20:28;51.75;31.04;66.81;;
72686;Laerm;61365;52.162;4.500;2023-09-07T00:22:55;52.01;30.84;66.94;;
72686;Laerm;61365;52.162;4.500;2023-09-07T00:25:21;46.94;31.22;66.06;;
72686;Laerm;61365;52.162;4.500;2023-09-07T00:27:47;49.61;30.99;66.51;;
72686;Laerm;61365;52.162;4.500;2023-09-07T00:30:13;51.53;31.06;66.33;;
72686;Laerm;61365;52.162;4.500;2023-09-07T00:32:40;51.43;30.90;66.45;;
72686;Laerm;61365;52.162;4.500;2023-09-07T00:35:06;51.15;30.88;66.47;;
72686;Laerm;61365;52.162;4.500;2023-09-07T00:37:33;51.82;30.80;67.17;;
72686;Laerm;61365;52.162;4.500;2023-09-07T00:39:59;51.21;30.87;67.30;;
72686;Laerm;61365;52.162;4.500;2023-09-07T00:42:25;51.23;30.61;66.57;;
72686;Laerm;61365;52.162;4.500;2023-09-07T00:44:51;51.01;30.49;67.01;;
72686;Laerm;61365;52.162;4.500;2023-09-07T00:47:18;51.08;30.60;66.71;;
72686;Laerm;61365;52.162;4.500;2023-09-07T00:49:44;50.66;31.04;66.44;;
72686;Laerm;61365;52.162;4.500;2023-09-07T00:52:11;51.35;30.89;66.60;;
72686;Laerm;61365;52.162;4.500;2023-09-07T00:54:38;50.78;30.86;65.77;;
72686;Laerm;61365;52.162;4.500;2023-09-07T00:57:06;50.97;30.73;66.92;;
72686;Laerm;61365;52.162;4.500;2023-09-07T00:59:34;51.35;30.75;66.75;;
72686;Laerm;61365;52.162;4.500;2023-09-07T01:02:00;51.11;30.88;66.61;;
72686;Laerm;61365;52.162;4.500;2023-09-07T01:04:26;51.69;30.69;68.27;;
72686;Laerm;61365;52.162;4.500;2023-09-07T01:07:20;51.06;30.50;66.69;;
72686;Laerm;61365;52.162;4.500;2023-09-07T01:09:54;51.39;30.84;66.51;;
72686;Laerm;61365;52.162;4.500;2023-09-07T01:12:22;51.25;30.95;65.46;;
72686;Laerm;61365;52.162;4.500;2023-09-07T01:14:48;51.27;30.45;67.08;;
72686;Laerm;61365;52.162;4.500;2023-09-07T01:17:14;50.74;31.00;66.65;;
72686;Laerm;61365;52.162;4.500;2023-09-07T01:19:40;51.09;30.89;66.45;;
72686;Laerm;61365;52.162;4.500;2023-09-07T01:22:10;50.40;30.75;66.84;;
72686;Laerm;61365;52.162;4.500;2023-09-07T01:24:38;51.00;30.82;66.61;;
72686;Laerm;61365;52.162;4.500;2023-09-07T01:27:05;50.82;30.96;64.08;;
72686;Laerm;61365;52.162;4.500;2023-09-07T01:29:31;50.77;30.80;66.36;;
72686;Laerm;61365;52.162;4.500;2023-09-07T01:31:57;50.63;30.93;66.51;;
72686;Laerm;61365;52.162;4.500;2023-09-07T01:34:24;51.15;30.85;66.69;;
72686;Laerm;61365;52.162;4.500;2023-09-07T01:36:50;50.78;30.88;66.91;;
72686;Laerm;61365;52.162;4.500;2023-09-07T01:39:17;50.70;30.81;66.38;;
72686;Laerm;61365;52.162;4.500;2023-09-07T01:41:43;51.11;30.70;66.93;;
72686;Laerm;61365;52.162;4.500;2023-09-07T01:44:09;50.98;30.95;66.02;;
72686;Laerm;61365;52.162;4.500;2023-09-07T01:46:35;50.75;30.84;66.34;;
72686;Laerm;61365;52.162;4.500;2023-09-07T01:49:04;50.52;30.93;66.76;;
72686;Laerm;61365;52.162;4.500;2023-09-07T01:51:30;51.04;30.81;66.95;;
72686;Laerm;61365;52.162;4.500;2023-09-07T01:53:56;50.85;30.86;66.80;;
72686;Laerm;61365;52.162;4.500;2023-09-07T01:56:22;50.68;30.83;65.61;;
72686;Laerm;61365;52.162;4.500;2023-09-07T01:58:48;50.80;30.95;67.05;;
72686;Laerm;61365;52.162;4.500;2023-09-07T02:01:25;50.71;30.83;65.81;;
72686;Laerm;61365;52.162;4.500;2023-09-07T02:03:52;50.90;30.63;66.66;;
72686;Laerm;61365;52.162;4.500;2023-09-07T02:06:18;50.39;30.93;67.37;;
72686;Laerm;61365;52.162;4.500;2023-09-07T02:08:45;50.91;30.84;66.62;;
72686;Laerm;61365;52.162;4.500;2023-09-07T02:11:11;50.64;30.84;66.47;;
72686;Laerm;61365;52.162;4.500;2023-09-07T02:13:37;50.34;30.93;66.27;;
72686;Laerm;61365;52.162;4.500;2023-09-07T02:16:04;50.79;30.91;66.79;;
72686;Laerm;61365;52.162;4.500;2023-09-07T02:18:35;50.49;30.78;66.49;;
72686;Laerm;61365;52.162;4.500;2023-09-07T02:21:05;50.70;30.76;67.09;;
72686;Laerm;61365;52.162;4.500;2023-09-07T02:23:34;50.81;30.72;66.70;;
72686;Laerm;61365;52.162;4.500;2023-09-07T02:26:01;50.67;30.90;66.53;;
72686;Laerm;61365;52.162;4.500;2023-09-07T02:28:27;50.22;31.09;66.80;;
72686;Laerm;61365;52.162;4.500;2023-09-07T02:30:54;50.17;30.79;65.48;;
72686;Laerm;61365;52.162;4.500;2023-09-07T02:33:20;50.86;30.76;66.27;;
72686;Laerm;61365;52.162;4.500;2023-09-07T02:35:49;49.78;30.80;66.06;;
72686;Laerm;61365;52.162;4.500;2023-09-07T02:38:15;50.65;30.87;64.19;;
72686;Laerm;61365;52.162;4.500;2023-09-07T02:40:43;50.14;30.89;66.32;;
72686;Laerm;61365;52.162;4.500;2023-09-07T02:43:10;50.27;31.00;66.30;;
72686;Laerm;61365;52.162;4.500;2023-09-07T02:45:36;50.40;30.71;65.98;;
72686;Laerm;61365;52.162;4.500;2023-09-07T02:48:02;50.11;31.02;65.23;;
72686;Laerm;61365;52.162;4.500;2023-09-07T02:50:31;50.00;31.07;66.71;;
72686;Laerm;61365;52.162;4.500;2023-09-07T02:52:57;50.67;31.07;66.91;;
72686;Laerm;61365;52.162;4.500;2023-09-07T02:55:24;50.29;31.02;65.89;;
72686;Laerm;61365;52.162;4.500;2023-09-07T02:57:50;49.87;31.03;66.20;;
72686;Laerm;61365;52.162;4.500;2023-09-07T03:00:16;50.08;30.82;66.76;;
72686;Laerm;61365;52.162;4.500;2023-09-07T03:02:43;49.58;30.86;66.92;;
72686;Laerm;61365;52.162;4.500;2023-09-07T03:05:10;50.07;30.88;66.53;;
72686;Laerm;61365;52.162;4.500;2023-09-07T03:07:36;49.74;31.11;66.48;;
72686;Laerm;61365;52.162;4.500;2023-09-07T03:10:02;49.46;30.98;66.98;;
72686;Laerm;61365;52.162;4.500;2023-09-07T03:12:29;49.73;31.08;66.41;;
72686;Laerm;61365;52.162;4.500;2023-09-07T03:14:55;49.92;30.99;65.68;;
72686;Laerm;61365;52.162;4.500;2023-09-07T03:17:22;49.89;30.94;66.47;;
72686;Laerm;61365;52.162;4.500;2023-09-07T03:19:48;49.82;30.86;66.87;;
72686;Laerm;61365;52.162;4.500;2023-09-07T03:22:14;50.09;30.96;66.32;;
72686;Laerm;61365;52.162;4.500;2023-09-07T03:24:41;49.75;30.93;66.32;;
72686;Laerm;61365;52.162;4.500;2023-09-07T03:27:07;49.51;30.95;66.34;;
72686;Laerm;61365;52.162;4.500;2023-09-07T03:29:34;50.13;30.90;65.57;;
72686;Laerm;61365;52.162;4.500;2023-09-07T03:32:01;50.92;30.76;66.93;;
72686;Laerm;61365;52.162;4.500;2023-09-07T03:34:28;50.69;31.02;67.28;;
72686;Laerm;61365;52.162;4.500;2023-09-07T03:36:54;49.37;31.04;66.49;;
72686;Laerm;61365;52.162;4.500;2023-09-07T03:39:20;49.64;30.78;65.52;;
72686;Laerm;61365;52.162;4.500;2023-09-07T03:41:49;49.48;30.92;66.66;;
72686;Laerm;61365;52.162;4.500;2023-09-07T03:44:15;49.86;31.06;66.38;;
72686;Laerm;61365;52.162;4.500;2023-09-07T03:46:41;50.09;30.69;66.95;;
72686;Laerm;61365;52.162;4.500;2023-09-07T03:49:07;50.31;30.76;66.42;;
72686;Laerm;61365;52.162;4.500;2023-09-07T03:51:34;49.88;31.06;66.07;;
72686;Laerm;61365;52.162;4.500;2023-09-07T03:54:00;49.96;30.89;64.96;;
72686;Laerm;61365;52.162;4.500;2023-09-07T03:56:26;50.19;30.76;66.66;;
72686;Laerm;61365;52.162;4.500;2023-09-07T03:58:52;49.86;30.81;65.58;;
72686;Laerm;61365;52.162;4.500;2023-09-07T04:01:18;50.31;30.73;66.01;;
72686;Laerm;61365;52.162;4.500;2023-09-07T04:03:44;49.75;30.99;66.61;;
72686;Laerm;61365;52.162;4.500;2023-09-07T04:06:10;50.03;30.95;66.56;;
72686;Laerm;61365;52.162;4.500;2023-09-07T04:08:37;49.98;30.98;66.10;;
72686;Laerm;61365;52.162;4.500;2023-09-07T04:11:04;49.27;30.93;66.46;;
72686;Laerm;61365;52.162;4.500;2023-09-07T04:13:31;49.67;30.93;66.80;;
72686;Laerm;61365;52.162;4.500;2023-09-07T04:15:57;49.30;30.68;64.18;;
72686;Laerm;61365;52.162;4.500;2023-09-07T04:18:24;49.59;30.99;66.39;;
72686;Laerm;61365;52.162;4.500;2023-09-07T04:20:50;50.00;30.97;66.81;;
72686;Laerm;61365;52.162;4.500;2023-09-07T04:23:16;49.85;30.86;67.44;;
72686;Laerm;61365;52.162;4.500;2023-09-07T04:25:42;49.95;31.01;65.86;;
72686;Laerm;61365;52.162;4.500;2023-09-07T04:28:08;49.88;31.02;66.66;;
72686;Laerm;61365;52.162;4.500;2023-09-07T04:30:39;49.82;30.94;66.06;;
72686;Laerm;61365;52.162;4.500;2023-09-07T04:33:05;49.31;30.98;66.51;;
72686;Laerm;61365;52.162;4.500;2023-09-07T04:35:32;49.58;31.10;66.11;;
72686;Laerm;61365;52.162;4.500;2023-09-07T04:37:58;49.32;30.81;64.67;;
72686;Laerm;61365;52.162;4.500;2023-09-07T04:40:25;49.45;31.01;66.64;;
72686;Laerm;61365;52.162;4.500;2023-09-07T04:42:51;49.45;30.98;64.92;;
72686;Laerm;61365;52.162;4.500;2023-09-07T04:45:17;49.29;31.05;66.96;;
72686;Laerm;61365;52.162;4.500;2023-09-07T04:47:43;49.94;30.91;66.19;;
72686;Laerm;61365;52.162;4.500;2023-09-07T04:50:10;49.71;31.18;66.83;;
72686;Laerm;61365;52.162;4.500;2023-09-07T04:52:36;49.52;31.02;66.77;;
72686;Laerm;61365;52.162;4.500;2023-09-07T04:55:02;49.12;31.18;66.76;;
72686;Laerm;61365;52.162;4.500;2023-09-07T04:57:30;49.11;31.02;64.47;;
72686;Laerm;61365;52.162;4.500;2023-09-07T04:59:56;49.43;31.02;66.03;;
72686;Laerm;61365;52.162;4.500;2023-09-07T05:02:22;49.17;31.14;66.62;;
72686;Laerm;61365;52.162;4.500;2023-09-07T05:04:49;49.68;30.69;66.58;;
72686;Laerm;61365;52.162;4.500;2023-09-07T05:07:16;48.86;30.87;65.85;;
72686;Laerm;61365;52.162;4.500;2023-09-07T05:09:42;49.11;31.12;66.66;;
72686;Laerm;61365;52.162;4.500;2023-09-07T05:12:08;49.24;31.03;64.85;;
72686;Laerm;61365;52.162;4.500;2023-09-07T05:14:34;49.42;31.07;66.72;;
72686;Laerm;61365;52.162;4.500;2023-09-07T05:17:00;49.71;31.13;66.40;;
72686;Laerm;61365;52.162;4.500;2023-09-07T05:19:27;49.08;31.07;66.90;;
72686;Laerm;61365;52.162;4.500;2023-09-07T05:21:53;49.74;31.00;66.76;;
72686;Laerm;61365;52.162;4.500;2023-09-07T05:24:19;49.69;31.02;65.53;;
72686;Laerm;61365;52.162;4.500;2023-09-07T05:26:45;50.18;30.88;65.46;;
72686;Laerm;61365;52.162;4.500;2023-09-07T05:29:12;50.03;30.58;66.25;;
72686;Laerm;61365;52.162;4.500;2023-09-07T05:31:38;50.89;30.89;66.62;;
72686;Laerm;61365;52.162;4.500;2023-09-07T05:34:05;50.92;30.94;67.73;;
72686;Laerm;61365;52.162;4.500;2023-09-07T05:36:31;50.43;30.92;66.80;;
72686;Laerm;61365;52.162;4.500;2023-09-07T05:38:57;50.72;30.82;66.72;;
72686;Laerm;61365;52.162;4.500;2023-09-07T05:41:23;51.01;30.65;66.55;;
72686;Laerm;61365;52.162;4.500;2023-09-07T05:43:52;51.72;30.40;66.93;;
72686;Laerm;61365;52.162;4.500;2023-09-07T05:46:18;51.66;30.96;68.61;;
72686;Laerm;61365;52.162;4.500;2023-09-07T05:48:44;51.90;30.75;66.76;;
72686;Laerm;61365;52.162;4.500;2023-09-07T05:51:10;51.23;30.86;66.86;;
72686;Laerm;61365;52.162;4.500;2023-09-07T05:53:36;52.16;30.80;67.12;;
72686;Laerm;61365;52.162;4.500;2023-09-07T05:56:03;52.27;30.97;66.79;;
72686;Laerm;61365;52.162;4.500;2023-09-07T05:58:29;52.10;30.73;69.03;;
72686;Laerm;61365;52.162;4.500;2023-09-07T06:00:55;52.20;30.75;66.92;;
72686;Laerm;61365;52.162;4.500;2023-09-07T06:03:21;52.10;30.96;66.97;;
72686;Laerm;61365;52.162;4.500;2023-09-07T06:05:47;52.17;30.83;66.46;;
72686;Laerm;61365;52.162;4.500;2023-09-07T06:08:13;51.72;31.01;67.01;;
72686;Laerm;61365;52.162;4.500;2023-09-07T06:10:40;52.30;31.02;66.90;;
72686;Laerm;61365;52.162;4.500;2023-09-07T06:13:06;52.55;30.65;67.54;;
72686;Laerm;61365;52.162;4.500;2023-09-07T06:15:32;52.57;30.82;67.19;;
72686;Laerm;61365;52.162;4.500;2023-09-07T06:17:58;52.20;30.81;66.80;;
72686;Laerm;61365;52.162;4.500;2023-09-07T06:20:25;52.24;30.68;66.71;;
72686;Laerm;61365;52.162;4.500;2023-09-07T06:22:51;52.18;30.90;66.80;;
72686;Laerm;61365;52.162;4.500;2023-09-07T06:25:17;52.18;31.04;67.04;;
72686;Laerm;61365;52.162;4.500;2023-09-07T06:27:43;52.70;30.94;66.89;;
72686;Laerm;61365;52.162;4.500;2023-09-07T06:30:10;52.75;30.89;66.98;;
72686;Laerm;61365;52.162;4.500;2023-09-07T06:32:36;52.43;30.94;66.88;;
72686;Laerm;61365;52.162;4.500;2023-09-07T06:35:02;53.08;30.85;68.10;;
72686;Laerm;61365;52.162;4.500;2023-09-07T06:37:29;52.55;30.58;67.06;;
72686;Laerm;61365;52.162;4.500;2023-09-07T06:39:55;52.39;30.80;66.96;;
72686;Laerm;61365;52.162;4.500;2023-09-07T06:42:21;52.51;30.96;66.90;;
72686;Laerm;61365;52.162;4.500;2023-09-07T06:44:47;52.61;30.98;67.11;;
72686;Laerm;61365;52.162;4.500;2023-09-07T06:47:13;52.84;30.99;67.10;;
72686;Laerm;61365;52.162;4.500;2023-09-07T06:49:40;52.80;30.95;67.17;;
72686;Laerm;61365;52.162;4.500;2023-09-07T06:52:06;52.99;30.94;67.16;;
72686;Laerm;61365;52.162;4.500;2023-09-07T06:54:32;53.09;30.95;67.00;;
72686;Laerm;61365;52.162;4.500;2023-09-07T06:56:58;53.38;30.82;67.25;;
72686;Laerm;61365;52.162;4.500;2023-09-07T06:59:24;53.19;30.94;67.24;;
72686;Laerm;61365;52.162;4.500;2023-09-07T07:01:51;53.16;30.99;67.18;;
72686;Laerm;61365;52.162;4.500;2023-09-07T07:04:17;53.42;30.82;67.27;;
72686;Laerm;61365;52.162;4.500;2023-09-07T07:06:43;53.69;30.81;67.17;;
72686;Laerm;61365;52.162;4.500;2023-09-07T07:09:09;53.70;30.82;67.08;;
72686;Laerm;61365;52.162;4.500;2023-09-07T07:11:36;53.52;30.83;68.54;;
72686;Laerm;61365;52.162;4.500;2023-09-07T07:14:05;53.85;30.81;68.21;;
72686;Laerm;61365;52.162;4.500;2023-09-07T07:16:31;53.92;31.00;67.05;;
72686;Laerm;61365;52.162;4.500;2023-09-07T07:18:57;53.66;31.10;66.84;;
72686;Laerm;61365;52.162;4.500;2023-09-07T07:21:23;52.53;30.78;67.19;;
72686;Laerm;61365;52.162;4.500;2023-09-07T07:23:50;43.01;31.04;56.92;;
72686;Laerm;61365;52.162;4.500;2023-09-07T07:26:16;48.13;31.24;64.97;;
72686;Laerm;61365;52.162;4.500;2023-09-07T07:28:43;54.03;30.99;68.83;;
72686;Laerm;61365;52.162;4.500;2023-09-07T07:31:09;53.98;30.77;67.07;;
72686;Laerm;61365;52.162;4.500;2023-09-07T07:33:36;53.76;31.13;67.32;;
72686;Laerm;61365;52.162;4.500;2023-09-07T07:36:04;53.97;30.84;67.04;;
72686;Laerm;61365;52.162;4.500;2023-09-07T07:38:30;53.97;30.88;67.18;;
72686;Laerm;61365;52.162;4.500;2023-09-07T07:40:56;53.99;30.97;67.25;;
72686;Laerm;61365;52.162;4.500;2023-09-07T07:43:22;53.73;31.11;67.06;;
72686;Laerm;61365;52.162;4.500;2023-09-07T07:45:48;54.05;31.04;67.14;;
72686;Laerm;61365;52.162;4.500;2023-09-07T07:48:14;54.16;31.11;67.30;;
72686;Laerm;61365;52.162;4.500;2023-09-07T07:50:41;53.95;31.14;67.97;;
72686;Laerm;61365;52.162;4.500;2023-09-07T07:53:07;53.92;30.86;67.19;;
72686;Laerm;61365;52.162;4.500;2023-09-07T07:55:36;53.88;31.07;66.77;;
72686;Laerm;61365;52.162;4.500;2023-09-07T07:58:07;54.13;31.14;67.14;;
72686;Laerm;61365;52.162;4.500;2023-09-07T08:00:37;54.06;31.06;66.90;;
72686;Laerm;61365;52.162;4.500;2023-09-07T08:03:05;54.00;31.05;67.40;;
72686;Laerm;61365;52.162;4.500;2023-09-07T08:05:35;54.12;31.11;67.29;;
72686;Laerm;61365;52.162;4.500;2023-09-07T08:08:01;54.28;30.99;67.82;;
72686;Laerm;61365;52.162;4.500;2023-09-07T08:10:27;54.31;31.08;67.69;;
72686;Laerm;61365;52.162;4.500;2023-09-07T08:12:54;54.14;30.94;68.42;;
72686;Laerm;61365;52.162;4.500;2023-09-07T08:15:21;54.16;30.96;67.69;;
72686;Laerm;61365;52.162;4.500;2023-09-07T08:17:48;53.96;31.16;66.92;;
72686;Laerm;61365;52.162;4.500;2023-09-07T08:20:14;54.46;31.00;67.28;;
72686;Laerm;61365;52.162;4.500;2023-09-07T08:22:41;54.16;30.82;67.09;;
72686;Laerm;61365;52.162;4.500;2023-09-07T08:25:09;54.41;30.96;66.90;;
72686;Laerm;61365;52.162;4.500;2023-09-07T08:27:35;54.56;31.02;68.45;;
72686;Laerm;61365;52.162;4.500;2023-09-07T08:30:01;54.59;30.70;67.62;;
72686;Laerm;61365;52.162;4.500;2023-09-07T08:32:27;54.54;31.05;67.30;;
72686;Laerm;61365;52.162;4.500;2023-09-07T08:34:56;54.33;31.06;67.24;;
72686;Laerm;61365;52.162;4.500;2023-09-07T08:37:25;54.43;30.83;67.51;;
72686;Laerm;61365;52.162;4.500;2023-09-07T08:39:54;54.63;30.94;67.19;;
72686;Laerm;61365;52.162;4.500;2023-09-07T08:42:21;54.34;30.65;69.06;;
72686;Laerm;61365;52.162;4.500;2023-09-07T08:44:49;49.95;30.74;67.13;;
72686;Laerm;61365;52.162;4.500;2023-09-07T08:47:18;54.58;31.01;67.43;;
72686;Laerm;61365;52.162;4.500;2023-09-07T08:49:45;55.03;30.84;67.86;;
72686;Laerm;61365;52.162;4.500;2023-09-07T08:52:14;54.64;30.62;67.25;;
72686;Laerm;61365;52.162;4.500;2023-09-07T08:54:42;54.35;30.91;66.96;;
72686;Laerm;61365;52.162;4.500;2023-09-07T08:57:10;54.76;30.83;68.48;;
72686;Laerm;61365;52.162;4.500;2023-09-07T08:59:36;54.50;31.02;67.21;;
72686;Laerm;61365;52.162;4.500;2023-09-07T09:02:08;54.84;30.58;67.20;;
72686;Laerm;61365;52.162;4.500;2023-09-07T09:04:35;54.91;30.83;67.28;;
72686;Laerm;61365;52.162;4.500;2023-09-07T09:07:01;54.64;30.93;66.88;;
72686;Laerm;61365;52.162;4.500;2023-09-07T09:09:30;55.00;30.87;67.31;;
72686;Laerm;61365;52.162;4.500;2023-09-07T09:12:09;54.39;30.65;66.94;;
72686;Laerm;61365;52.162;4.500;2023-09-07T09:14:36;54.82;31.02;68.00;;
72686;Laerm;61365;52.162;4.500;2023-09-07T09:17:02;54.96;31.06;68.42;;
72686;Laerm;61365;52.162;4.500;2023-09-07T09:19:32;54.95;30.17;67.09;;
72686;Laerm;61365;52.162;4.500;2023-09-07T09:21:58;54.77;31.01;67.37;;
72686;Laerm;61365;52.162;4.500;2023-09-07T09:24:25;54.83;31.06;67.37;;
72686;Laerm;61365;52.162;4.500;2023-09-07T09:26:51;55.27;31.19;69.04;;
72686;Laerm;61365;52.162;4.500;2023-09-07T09:29:22;54.88;31.17;68.57;;
72686;Laerm;61365;52.162;4.500;2023-09-07T09:31:50;54.94;30.74;67.35;;
72686;Laerm;61365;52.162;4.500;2023-09-07T09:34:18;54.90;30.76;67.13;;
72686;Laerm;61365;52.162;4.500;2023-09-07T09:36:44;54.93;30.95;67.19;;
72686;Laerm;61365;52.162;4.500;2023-09-07T09:39:10;54.95;30.99;68.01;;
72686;Laerm;61365;52.162;4.500;2023-09-07T09:41:46;55.11;31.03;69.21;;
72686;Laerm;61365;52.162;4.500;2023-09-07T09:44:13;54.76;30.59;67.52;;
72686;Laerm;61365;52.162;4.500;2023-09-07T09:46:42;54.99;31.10;69.29;;
72686;Laerm;61365;52.162;4.500;2023-09-07T09:49:10;54.76;30.87;66.93;;
72686;Laerm;61365;52.162;4.500;2023-09-07T09:51:39;54.91;30.96;67.73;;
72686;Laerm;61365;52.162;4.500;2023-09-07T09:54:06;55.19;30.83;67.06;;
72686;Laerm;61365;52.162;4.500;2023-09-07T09:56:32;55.37;30.63;67.91;;
72686;Laerm;61365;52.162;4.500;2023-09-07T09:58:58;55.22;30.90;67.47;;
72686;Laerm;61365;52.162;4.500;2023-09-07T10:01:24;55.45;30.71;67.32;;
72686;Laerm;61365;52.162;4.500;2023-09-07T10:03:52;55.48;30.92;66.97;;
72686;Laerm;61365;52.162;4.500;2023-09-07T10:06:28;55.47;31.02;68.33;;
72686;Laerm;61365;52.162;4.500;2023-09-07T10:08:59;55.09;30.90;66.87;;
72686;Laerm;61365;52.162;4.500;2023-09-07T10:11:32;55.42;31.10;67.98;;
72686;Laerm;61365;52.162;4.500;2023-09-07T10:14:03;55.25;31.10;66.97;;
72686;Laerm;61365;52.162;4.500;2023-09-07T10:16:46;55.29;30.58;68.73;;
72686;Laerm;61365;52.162;4.500;2023-09-07T10:19:20;55.43;30.97;68.42;;
72686;Laerm;61365;52.162;4.500;2023-09-07T10:21:47;55.28;30.92;68.75;;
72686;Laerm;61365;52.162;4.500;2023-09-07T10:24:31;55.30;30.60;67.02;;
72686;Laerm;61365;52.162;4.500;2023-09-07T10:27:08;55.31;31.02;67.52;;
72686;Laerm;61365;52.162;4.500;2023-09-07T10:29:46;55.34;30.64;66.98;;
72686;Laerm;61365;52.162;4.500;2023-09-07T10:32:15;55.43;30.97;67.79;;
72686;Laerm;61365;52.162;4.500;2023-09-07T10:34:42;55.48;31.19;69.08;;
72686;Laerm;61365;52.162;4.500;2023-09-07T10:37:13;55.75;31.09;67.32;;
72686;Laerm;61365;52.162;4.500;2023-09-07T10:39:41;55.56;30.89;66.98;;
72686;Laerm;61365;52.162;4.500;2023-09-07T10:42:23;55.39;31.11;66.91;;
72686;Laerm;61365;52.162;4.500;2023-09-07T10:44:50;55.33;31.07;68.49;;
72686;Laerm;61365;52.162;4.500;2023-09-07T10:47:16;55.46;30.89;68.27;;
72686;Laerm;61365;52.162;4.500;2023-09-07T10:49:43;55.70;30.86;67.48;;
72686;Laerm;61365;52.162;4.500;2023-09-07T10:52:09;55.68;30.93;68.11;;
72686;Laerm;61365;52.162;4.500;2023-09-07T10:54:35;55.68;31.27;68.41;;
72686;Laerm;61365;52.162;4.500;2023-09-07T10:57:09;55.44;31.19;69.83;;
72686;Laerm;61365;52.162;4.500;2023-09-07T10:59:35;55.71;31.17;67.80;;
72686;Laerm;61365;52.162;4.500;2023-09-07T11:02:05;55.59;31.05;67.40;;
72686;Laerm;61365;52.162;4.500;2023-09-07T11:04:32;55.32;30.77;67.86;;
72686;Laerm;61365;52.162;4.500;2023-09-07T11:06:58;55.62;31.22;67.94;;
72686;Laerm;61365;52.162;4.500;2023-09-07T11:09:24;55.60;30.99;68.89;;
72686;Laerm;61365;52.162;4.500;2023-09-07T11:11:51;55.67;31.29;67.22;;
72686;Laerm;61365;52.162;4.500;2023-09-07T11:14:17;55.72;31.20;67.86;;
72686;Laerm;61365;52.162;4.500;2023-09-07T11:16:47;55.83;31.22;68.31;;
72686;Laerm;61365;52.162;4.500;2023-09-07T11:19:13;55.83;31.04;68.93;;
72686;Laerm;61365;52.162;4.500;2023-09-07T11:21:41;55.85;31.15;67.26;;
72686;Laerm;61365;52.162;4.500;2023-09-07T11:24:08;56.09;31.25;67.47;;
72686;Laerm;61365;52.162;4.500;2023-09-07T11:26:44;55.89;31.02;69.07;;
72686;Laerm;61365;52.162;4.500;2023-09-07T11:29:15;55.82;31.13;70.79;;
72686;Laerm;61365;52.162;4.500;2023-09-07T11:31:41;55.88;30.95;67.78;;
72686;Laerm;61365;52.162;4.500;2023-09-07T11:34:09;43.94;31.35;65.20;;
72686;Laerm;61365;52.162;4.500;2023-09-07T11:36:36;49.16;31.38;66.61;;
72686;Laerm;61365;52.162;4.500;2023-09-07T11:39:03;55.78;31.24;67.86;;
72686;Laerm;61365;52.162;4.500;2023-09-07T11:41:40;56.10;30.88;66.90;;
72686;Laerm;61365;52.162;4.500;2023-09-07T11:44:07;55.86;31.15;67.63;;
72686;Laerm;61365;52.162;4.500;2023-09-07T11:46:34;55.87;30.73;67.11;;
72686;Laerm;61365;52.162;4.500;2023-09-07T11:49:00;55.97;31.09;69.25;;
72686;Laerm;61365;52.162;4.500;2023-09-07T11:51:26;56.10;31.12;67.98;;
72686;Laerm;61365;52.162;4.500;2023-09-07T11:53:53;55.99;31.24;68.22;;
72686;Laerm;61365;52.162;4.500;2023-09-07T11:56:19;56.26;30.77;70.38;;
72686;Laerm;61365;52.162;4.500;2023-09-07T11:58:45;56.11;31.22;68.99;;
72686;Laerm;61365;52.162;4.500;2023-09-07T12:01:11;56.03;30.99;68.30;;
72686;Laerm;61365;52.162;4.500;2023-09-07T12:03:37;56.14;30.88;68.21;;
72686;Laerm;61365;52.162;4.500;2023-09-07T12:06:03;56.12;31.15;67.07;;
72686;Laerm;61365;52.162;4.500;2023-09-07T12:08:29;56.28;31.61;68.09;;
72686;Laerm;61365;52.162;4.500;2023-09-07T12:10:55;56.43;31.02;67.03;;
72686;Laerm;61365;52.162;4.500;2023-09-07T12:13:21;56.23;30.99;67.67;;
72686;Laerm;61365;52.162;4.500;2023-09-07T12:15:47;56.50;31.76;67.10;;
72686;Laerm;61365;52.162;4.500;2023-09-07T12:18:14;56.35;31.52;67.16;;
72686;Laerm;61365;52.162;4.500;2023-09-07T12:20:40;56.54;31.28;67.75;;
72686;Laerm;61365;52.162;4.500;2023-09-07T12:23:06;56.43;31.04;67.79;;
72686;Laerm;61365;52.162;4.500;2023-09-07T12:25:32;56.45;31.20;67.49;;
72686;Laerm;61365;52.162;4.500;2023-09-07T12:27:58;56.69;31.25;68.55;;
72686;Laerm;61365;52.162;4.500;2023-09-07T12:30:24;56.37;31.12;66.35;;
72686;Laerm;61365;52.162;4.500;2023-09-07T12:32:51;56.48;31.38;67.70;;
72686;Laerm;61365;52.162;4.500;2023-09-07T12:35:17;56.49;31.08;67.24;;
72686;Laerm;61365;52.162;4.500;2023-09-07T12:37:43;56.57;30.97;68.83;;
72686;Laerm;61365;52.162;4.500;2023-09-07T12:40:10;56.42;30.99;67.99;;
72686;Laerm;61365;52.162;4.500;2023-09-07T12:42:43;47.61;31.58;67.51;;
72686;Laerm;61365;52.162;4.500;2023-09-07T12:45:10;41.87;31.99;57.13;;
72686;Laerm;61365;52.162;4.500;2023-09-07T12:47:42;42.15;32.48;55.45;;
72686;Laerm;61365;52.162;4.500;2023-09-07T12:50:08;41.92;32.50;56.03;;
72686;Laerm;61365;52.162;4.500;2023-09-07T12:52:35;41.93;31.87;56.78;;
72686;Laerm;61365;52.162;4.500;2023-09-07T12:55:04;41.79;31.98;57.03;;
72686;Laerm;61365;52.162;4.500;2023-09-07T12:57:30;42.50;32.05;56.09;;
72686;Laerm;61365;52.162;4.500;2023-09-07T12:59:57;42.11;32.17;56.82;;
72686;Laerm;61365;52.162;4.500;2023-09-07T13:02:23;49.74;31.55;65.95;;
72686;Laerm;61365;52.162;4.500;2023-09-07T13:04:49;55.50;31.35;67.82;;
72686;Laerm;61365;52.162;4.500;2023-09-07T13:07:15;42.26;31.64;57.41;;
72686;Laerm;61365;52.162;4.500;2023-09-07T13:09:44;42.06;31.17;55.45;;
72686;Laerm;61365;52.162;4.500;2023-09-07T13:12:11;48.06;31.86;66.20;;
72686;Laerm;61365;52.162;4.500;2023-09-07T13:14:37;55.15;31.59;69.08;;
72686;Laerm;61365;52.162;4.500;2023-09-07T13:17:04;42.44;31.37;56.95;;
72686;Laerm;61365;52.162;4.500;2023-09-07T13:19:30;52.32;31.38;65.88;;
72686;Laerm;61365;52.162;4.500;2023-09-07T13:21:56;56.63;30.96;67.05;;
72686;Laerm;61365;52.162;4.500;2023-09-07T13:24:22;56.43;31.29;67.97;;
72686;Laerm;61365;52.162;4.500;2023-09-07T13:26:50;56.81;31.24;68.50;;
72686;Laerm;61365;52.162;4.500;2023-09-07T13:29:17;56.84;31.57;68.01;;
72686;Laerm;61365;52.162;4.500;2023-09-07T13:31:43;57.05;31.45;67.63;;
72686;Laerm;61365;52.162;4.500;2023-09-07T13:34:09;56.77;31.30;67.62;;
72686;Laerm;61365;52.162;4.500;2023-09-07T13:36:35;56.67;31.23;67.15;;
72686;Laerm;61365;52.162;4.500;2023-09-07T13:39:01;56.75;31.05;68.78;;
72686;Laerm;61365;52.162;4.500;2023-09-07T13:41:27;56.73;31.54;68.34;;
72686;Laerm;61365;52.162;4.500;2023-09-07T13:43:54;56.60;31.24;67.98;;